Time;durP1;ratioP1;P1;durP2;ratioP2;P2;SDS_P1;SDS_P2;PMS_P1;PMS_P2;Temp;Humidity;BMP_temperature;BMP_pressure;BME280_temperature;BME280_humidity;BME280_pressure;Samples;Min_cycle;Max_cycle;Signal;HPM_P1;HPM_P2
2021/03/14 00:01:00;;;;;;;5.95;1.67;;;4.80;99.90;;;;;;4976170;28;20114;-63
2021/03/14 00:03:29;;;;;;;3.00;0.82;;;4.80;99.90;;;;;;4975921;28;20031;-63
2021/03/14 00:05:57;;;;;;;6.90;1.20;;;4.80;99.90;;;;;;4990761;28;20042;-63
2021/03/14 00:08:28;;;;;;;6.72;1.40;;;4.80;99.90;;;;;;4990963;28;20480;-63
2021/03/14 00:11:00;;;;;;;;;;;4.80;99.90;;;;;;4991013;28;20039;-63
2021/03/14 00:13:38;;;;;;;6.90;1.48;;;4.80;99.90;;;;;;4974571;28;19914;-63
2021/03/14 00:16:06;;;;;;;8.68;2.28;;;4.80;99.90;;;;;;4975951;28;20039;-63
2021/03/14 00:18:39;;;;;;;4.07;1.33;;;4.80;99.90;;;;;;4975626;28;20027;-63
2021/03/14 00:21:06;;;;;;;5.25;1.80;;;4.80;99.90;;;;;;4975821;28;20046;-63
2021/03/14 00:23:32;;;;;;;3.35;1.42;;;4.80;99.90;;;;;;4990925;28;20211;-63
2021/03/14 00:25:58;;;;;;;3.85;1.08;;;4.90;99.90;;;;;;4974358;28;20054;-63
2021/03/14 00:28:25;;;;;;;3.90;0.60;;;4.80;99.90;;;;;;4975628;28;20432;-62
2021/03/14 00:30:51;;;;;;;2.97;0.82;;;4.80;99.90;;;;;;4974058;28;20034;-63
2021/03/14 00:33:17;;;;;;;2.83;0.80;;;4.70;99.90;;;;;;4990254;28;20050;-63
2021/03/14 00:35:43;;;;;;;7.03;0.70;;;4.70;99.90;;;;;;4975688;28;20090;-63
2021/03/14 00:38:09;;;;;;;1.10;0.50;;;4.70;99.90;;;;;;4974588;28;20480;-63
2021/03/14 00:40:35;;;;;;;2.55;0.70;;;4.70;99.90;;;;;;4975670;28;20030;-63
2021/03/14 00:43:05;;;;;;;2.20;0.57;;;4.60;99.90;;;;;;4975313;28;20043;-63
2021/03/14 00:45:36;;;;;;;2.90;0.43;;;4.60;99.90;;;;;;4990535;28;20043;-63
2021/03/14 00:48:04;;;;;;;3.97;0.70;;;4.70;99.90;;;;;;4989919;28;20030;-63
2021/03/14 00:50:38;;;;;;;1.55;0.55;;;4.70;99.90;;;;;;4975437;28;20144;-64
2021/03/14 00:53:04;;;;;;;2.28;0.75;;;4.70;99.90;;;;;;4989666;28;20085;-63
2021/03/14 00:55:30;;;;;;;0.98;0.52;;;4.70;99.90;;;;;;4990343;28;20463;-63
2021/03/14 00:57:56;;;;;;;1.00;0.43;;;4.70;99.90;;;;;;4975237;28;20038;-63
2021/03/14 01:00:22;;;;;;;2.53;0.60;;;4.70;99.90;;;;;;4975221;28;20396;-63
2021/03/14 01:02:48;;;;;;;1.60;0.90;;;4.70;99.90;;;;;;4974757;28;20038;-63
2021/03/14 01:05:14;;;;;;;3.30;1.13;;;4.70;99.90;;;;;;4974181;28;20369;-63
2021/03/14 01:07:40;;;;;;;6.80;1.05;;;4.60;99.90;;;;;;4974923;28;20043;-64
2021/03/14 01:10:07;;;;;;;2.22;0.77;;;4.60;99.90;;;;;;4975088;28;20054;-63
2021/03/14 01:12:32;;;;;;;4.40;1.15;;;4.60;99.90;;;;;;4974615;28;20427;-63
2021/03/14 01:14:59;;;;;;;1.50;0.73;;;4.60;99.90;;;;;;4974609;28;20050;-63
2021/03/14 01:17:25;;;;;;;1.48;0.77;;;4.60;99.90;;;;;;4974701;28;20131;-63
2021/03/14 01:19:50;;;;;;;1.55;0.60;;;4.60;99.90;;;;;;4989822;28;20062;-63
2021/03/14 01:22:16;;;;;;;6.30;1.25;;;4.50;99.90;;;;;;4974900;28;20053;-64
2021/03/14 01:24:42;;;;;;;3.38;1.40;;;4.50;99.90;;;;;;4989636;28;20121;-64
2021/03/14 01:27:08;;;;;;;3.72;1.00;;;4.60;99.90;;;;;;4974341;28;20035;-64
2021/03/14 01:29:34;;;;;;;1.73;0.90;;;4.60;99.90;;;;;;4989787;28;20058;-63
2021/03/14 01:31:59;;;;;;;5.35;1.00;;;4.60;99.90;;;;;;4974527;28;20019;-63
2021/03/14 01:34:25;;;;;;;5.22;0.95;;;4.70;99.90;;;;;;4989232;28;20130;-63
2021/03/14 01:36:52;;;;;;;2.13;0.88;;;4.70;99.90;;;;;;4974355;28;20058;-63
2021/03/14 01:39:19;;;;;;;9.85;1.10;;;4.70;99.90;;;;;;4989685;28;20043;-63
2021/03/14 01:41:45;;;;;;;5.93;1.20;;;4.60;99.90;;;;;;4974548;28;20093;-63
2021/03/14 01:44:11;;;;;;;3.20;0.80;;;4.60;99.90;;;;;;4974066;28;20384;-64
2021/03/14 01:46:37;;;;;;;3.28;1.10;;;4.60;99.90;;;;;;4974470;28;20035;-63
2021/03/14 01:49:04;;;;;;;3.63;1.13;;;4.50;99.90;;;;;;4989142;28;20043;-63
2021/03/14 01:51:32;;;;;;;6.13;1.20;;;4.50;99.90;;;;;;4989223;28;20058;-63
2021/03/14 01:53:59;;;;;;;5.22;1.40;;;4.40;99.90;;;;;;4988892;28;20090;-63
2021/03/14 01:56:25;;;;;;;5.20;1.00;;;4.50;99.90;;;;;;4972736;28;20507;-63
2021/03/14 01:58:51;;;;;;;4.15;1.40;;;4.50;99.90;;;;;;4989144;28;20126;-64
2021/03/14 02:01:17;;;;;;;3.10;1.05;;;4.80;99.90;;;;;;4974170;28;20027;-63
2021/03/14 02:03:43;;;;;;;6.55;0.90;;;5.10;99.90;;;;;;4974022;28;20050;-64
2021/03/14 02:06:10;;;;;;;4.75;0.93;;;5.30;99.90;;;;;;4988778;28;20031;-63
2021/03/14 02:08:36;;;;;;;6.07;1.25;;;5.30;99.90;;;;;;4974004;28;20038;-63
2021/03/14 02:11:02;;;;;;;4.05;1.20;;;5.30;99.90;;;;;;4973793;28;20056;-63
2021/03/14 02:13:39;;;;;;;3.78;0.98;;;5.40;99.90;;;;;;4988503;28;20395;-63
2021/03/14 02:16:15;;;;;;;5.93;0.82;;;5.30;99.90;;;;;;4973656;28;20042;-63
2021/03/14 02:18:44;;;;;;;4.93;0.98;;;5.20;99.90;;;;;;4988569;28;20031;-62
2021/03/14 02:21:12;;;;;;;2.65;0.65;;;5.20;99.90;;;;;;4988361;28;20065;-63
2021/03/14 02:24:05;;;;;;;4.38;1.17;;;5.20;99.90;;;;;;4988735;28;20039;-62
2021/03/14 02:26:44;;;;;;;7.50;1.00;;;5.20;99.90;;;;;;4972534;28;20039;-63
2021/03/14 02:29:19;;;;;;;2.60;0.93;;;5.20;99.90;;;;;;4988419;28;20472;-62
2021/03/14 02:31:48;;;;;;;2.25;0.73;;;5.20;99.90;;;;;;4973524;28;20031;-62
2021/03/14 02:34:29;;;;;;;4.40;1.17;;;5.20;99.90;;;;;;4987956;28;20047;-62
2021/03/14 02:36:56;;;;;;;3.00;0.82;;;5.20;99.90;;;;;;4988245;28;20042;-62
2021/03/14 02:39:25;;;;;;;4.75;0.70;;;5.20;99.90;;;;;;4973436;28;20074;-62
2021/03/14 02:41:55;;;;;;;3.85;0.80;;;5.10;99.90;;;;;;4988037;28;20030;-62
2021/03/14 02:44:26;;;;;;;2.40;0.90;;;5.10;99.90;;;;;;4988385;28;20035;-62
2021/03/14 02:46:53;;;;;;;3.17;1.27;;;5.00;99.90;;;;;;4973391;28;20059;-62
2021/03/14 02:49:21;;;;;;;2.67;1.40;;;5.00;99.90;;;;;;4988635;28;20062;-62
2021/03/14 02:51:48;;;;;;;2.83;1.45;;;4.90;99.90;;;;;;4988503;28;20089;-62
2021/03/14 02:54:16;;;;;;;5.47;1.35;;;4.90;99.90;;;;;;4973095;28;20038;-62
2021/03/14 02:56:48;;;;;;;4.80;0.90;;;4.90;99.90;;;;;;4988478;28;20035;-62
2021/03/14 02:59:15;;;;;;;;;;;4.90;99.90;;;;;;4988234;28;20026;-62
2021/03/14 03:01:46;;;;;;;2.42;1.20;;;4.80;99.90;;;;;;4973645;28;19960;-62
2021/03/14 03:04:16;;;;;;;4.13;0.90;;;4.80;99.90;;;;;;4988337;28;20137;-63
2021/03/14 03:06:42;;;;;;;1.73;0.80;;;4.90;99.90;;;;;;4973427;28;20054;-63
2021/03/14 03:09:10;;;;;;;1.80;0.90;;;4.80;99.90;;;;;;4988211;28;20039;-63
2021/03/14 03:11:39;;;;;;;5.05;1.00;;;4.80;99.90;;;;;;4973192;28;20113;-62
2021/03/14 03:14:07;;;;;;;5.63;1.48;;;4.80;99.90;;;;;;4988072;28;20035;-62
2021/03/14 03:16:33;;;;;;;6.10;1.00;;;4.80;99.90;;;;;;4973466;28;20162;-62
2021/03/14 03:18:59;;;;;;;7.57;1.30;;;4.80;99.90;;;;;;4987879;28;20027;-62
2021/03/14 03:21:26;;;;;;;2.53;1.58;;;4.80;99.90;;;;;;4973471;28;20035;-63
2021/03/14 03:23:52;;;;;;;2.38;1.02;;;4.80;99.90;;;;;;4988086;28;20379;-62
2021/03/14 03:26:18;;;;;;;2.60;1.30;;;4.80;99.90;;;;;;4987998;28;20435;-62
2021/03/14 03:28:44;;;;;;;3.75;1.30;;;4.80;99.90;;;;;;4976485;28;20035;-62
2021/03/14 03:31:11;;;;;;;3.88;1.60;;;4.80;99.90;;;;;;4991640;28;20039;-63
2021/03/14 03:33:37;;;;;;;6.38;1.30;;;4.80;99.90;;;;;;4991432;28;20043;-63
2021/03/14 03:36:04;;;;;;;3.42;1.55;;;4.80;99.90;;;;;;4976631;28;20117;-63
2021/03/14 03:38:34;;;;;;;5.45;1.80;;;4.80;99.90;;;;;;4976815;28;20089;-62
2021/03/14 03:41:00;;;;;;;2.83;1.40;;;4.80;99.90;;;;;;4991654;28;20035;-63
2021/03/14 03:43:37;;;;;;;5.00;1.40;;;4.90;99.90;;;;;;4991692;28;20054;-63
2021/03/14 03:46:07;;;;;;;5.13;1.40;;;4.90;99.90;;;;;;4976220;28;20035;-63
2021/03/14 03:48:48;;;;;;;5.55;1.73;;;5.00;99.90;;;;;;4991285;28;20035;-62
2021/03/14 03:51:21;;;;;;;7.13;1.58;;;4.90;99.90;;;;;;4991467;28;20074;-63
2021/03/14 03:53:49;;;;;;;4.13;1.20;;;5.00;99.90;;;;;;4974966;28;20045;-63
2021/03/14 03:56:15;;;;;;;7.25;1.85;;;5.00;99.90;;;;;;4991009;28;20034;-63
2021/03/14 03:58:43;;;;;;;5.63;1.65;;;4.90;99.90;;;;;;4991079;28;20481;-63
2021/03/14 04:01:11;;;;;;;5.13;1.80;;;4.80;99.90;;;;;;4990885;28;20447;-64
2021/03/14 04:03:41;;;;;;;8.18;1.88;;;4.80;99.90;;;;;;4990957;28;20035;-64
2021/03/14 04:06:07;;;;;;;8.05;2.75;;;4.70;99.90;;;;;;4991047;28;20038;-63
2021/03/14 04:08:35;;;;;;;8.52;2.97;;;4.70;99.90;;;;;;4991298;28;20042;-63
2021/03/14 04:11:09;;;;;;;5.85;2.50;;;4.60;99.90;;;;;;4991158;28;20058;-63
2021/03/14 04:13:36;;;;;;;8.27;2.47;;;4.50;99.90;;;;;;4990362;28;20035;-63
2021/03/14 04:16:04;;;;;;;4.32;2.47;;;4.60;99.90;;;;;;4991045;28;20122;-63
2021/03/14 04:18:31;;;;;;;4.45;2.45;;;4.50;99.90;;;;;;4976104;28;20038;-63
2021/03/14 04:20:59;;;;;;;7.13;2.72;;;4.50;99.90;;;;;;4990683;28;20092;-63
2021/03/14 04:23:26;;;;;;;4.75;2.53;;;4.50;99.90;;;;;;4990854;28;20031;-63
2021/03/14 04:25:55;;;;;;;7.10;2.70;;;4.60;99.90;;;;;;4990400;28;20053;-63
2021/03/14 04:28:28;;;;;;;4.88;2.50;;;4.60;99.90;;;;;;4990458;28;20034;-63
2021/03/14 04:30:56;;;;;;;3.60;2.35;;;4.70;99.90;;;;;;4990438;28;20027;-63
2021/03/14 04:33:28;;;;;;;4.55;2.40;;;4.70;99.90;;;;;;4990138;28;20058;-63
2021/03/14 04:35:58;;;;;;;5.40;2.03;;;4.70;99.90;;;;;;4990691;28;20073;-63
2021/03/14 04:38:26;;;;;;;4.60;2.13;;;4.80;99.90;;;;;;4989251;28;20129;-63
2021/03/14 04:40:54;;;;;;;5.72;2.40;;;4.80;99.90;;;;;;4989978;28;20401;-63
2021/03/14 04:43:22;;;;;;;5.40;1.95;;;4.80;99.90;;;;;;4990526;28;20057;-63
2021/03/14 04:45:50;;;;;;;5.80;2.88;;;4.90;99.90;;;;;;4975559;28;20034;-62
2021/03/14 04:48:23;;;;;;;4.50;2.10;;;4.90;99.90;;;;;;4990295;28;20030;-63
2021/03/14 04:50:52;;;;;;;4.93;2.03;;;4.90;99.90;;;;;;4990326;28;20078;-62
2021/03/14 04:53:25;;;;;;;3.28;1.77;;;4.90;99.90;;;;;;4975219;28;20026;-62
2021/03/14 04:55:53;;;;;;;8.13;2.33;;;4.90;99.90;;;;;;4989969;28;20045;-62
2021/03/14 04:58:22;;;;;;;5.53;2.78;;;4.90;99.90;;;;;;4990151;28;20030;-63
2021/03/14 05:00:49;;;;;;;4.22;2.58;;;4.90;99.90;;;;;;4989910;28;20121;-63
2021/03/14 05:03:19;;;;;;;7.95;2.63;;;4.90;99.90;;;;;;4989989;28;20034;-63
2021/03/14 05:05:46;;;;;;;7.85;2.80;;;4.90;99.90;;;;;;4975301;28;20503;-63
2021/03/14 05:08:23;;;;;;;5.72;2.55;;;5.00;99.90;;;;;;4990162;28;20082;-63
2021/03/14 05:10:52;;;;;;;4.63;3.08;;;5.00;99.90;;;;;;4989559;28;20039;-63
2021/03/14 05:13:18;;;;;;;8.32;3.35;;;5.00;99.90;;;;;;4989949;28;20069;-63
2021/03/14 05:15:53;;;;;;;7.20;2.92;;;5.00;99.90;;;;;;4974913;28;20035;-63
2021/03/14 05:18:20;;;;;;;5.63;2.70;;;5.00;99.90;;;;;;4974726;28;20031;-62
2021/03/14 05:20:46;;;;;;;4.43;2.38;;;5.00;99.90;;;;;;4989858;28;20476;-62
2021/03/14 05:23:12;;;;;;;3.42;2.00;;;5.00;99.90;;;;;;4989612;28;20550;-62
2021/03/14 05:25:40;;;;;;;10.25;2.03;;;5.00;99.90;;;;;;4989376;28;20038;-62
2021/03/14 05:28:07;;;;;;;7.10;2.20;;;5.00;99.90;;;;;;4989527;28;20113;-63
2021/03/14 05:30:35;;;;;;;4.18;1.95;;;5.00;99.90;;;;;;4989668;28;20031;-63
2021/03/14 05:33:02;;;;;;;4.90;1.70;;;5.00;99.90;;;;;;4974383;28;20051;-63
2021/03/14 05:35:30;;;;;;;4.20;1.95;;;5.00;99.90;;;;;;4974387;28;20468;-63
2021/03/14 05:37:58;;;;;;;4.22;1.70;;;5.00;99.90;;;;;;4974338;28;20503;-63
2021/03/14 05:40:26;;;;;;;7.82;2.80;;;5.00;99.90;;;;;;4974515;28;20399;-63
2021/03/14 05:42:53;;;;;;;5.18;2.28;;;5.00;99.90;;;;;;4989218;28;20506;-63
2021/03/14 05:45:22;;;;;;;10.98;2.05;;;5.00;99.90;;;;;;4988924;28;20027;-63
2021/03/14 05:47:49;;;;;;;3.17;1.50;;;5.00;99.90;;;;;;4989230;28;20034;-63
2021/03/14 05:50:19;;;;;;;4.75;1.50;;;5.00;99.90;;;;;;4973637;28;20062;-63
2021/03/14 05:52:47;;;;;;;7.23;1.47;;;5.00;99.90;;;;;;4972990;28;20038;-63
2021/03/14 05:55:17;;;;;;;8.40;1.40;;;5.00;99.90;;;;;;4988384;28;20300;-63
2021/03/14 05:57:50;;;;;;;7.72;1.40;;;5.00;99.90;;;;;;4988824;28;20065;-62
2021/03/14 06:00:26;;;;;;;2.70;1.35;;;5.10;99.90;;;;;;4988790;28;20039;-63
2021/03/14 06:02:58;;;;;;;8.70;1.85;;;5.00;99.90;;;;;;4973945;28;20033;-63
2021/03/14 06:05:29;;;;;;;2.22;1.20;;;5.00;99.90;;;;;;4988917;28;20112;-63
2021/03/14 06:07:57;;;;;;;3.88;1.20;;;5.00;99.90;;;;;;4974234;28;20026;-63
2021/03/14 06:10:23;;;;;;;3.97;1.27;;;5.00;99.90;;;;;;4988464;28;20038;-63
2021/03/14 06:12:49;;;;;;;5.45;2.30;;;5.10;99.90;;;;;;4973867;28;20035;-62
2021/03/14 06:15:16;;;;;;;6.10;1.30;;;5.00;99.90;;;;;;4973687;28;20042;-62
2021/03/14 06:17:42;;;;;;;4.25;1.17;;;4.90;99.90;;;;;;4973866;28;20068;-62
2021/03/14 06:20:30;;;;;;;2.97;1.40;;;4.90;99.90;;;;;;4973866;28;20369;-62
2021/03/14 06:23:12;;;;;;;4.28;1.35;;;5.00;99.90;;;;;;4986038;28;20027;-64
2021/03/14 06:25:41;;;;;;;7.10;1.60;;;5.00;99.90;;;;;;4988637;28;20023;-64
2021/03/14 06:28:07;;;;;;;4.25;1.30;;;4.90;99.90;;;;;;4988430;28;20436;-63
2021/03/14 06:30:35;;;;;;;3.78;1.30;;;4.90;99.90;;;;;;4972201;28;20073;-63
2021/03/14 06:33:04;;;;;;;4.38;1.50;;;4.90;99.90;;;;;;4988342;28;20043;-63
2021/03/14 06:35:56;;;;;;;4.57;2.15;;;4.90;99.90;;;;;;4981118;28;20085;-63
2021/03/14 06:38:34;;;;;;;2.88;1.58;;;4.90;99.90;;;;;;4991539;28;20042;-63
2021/03/14 06:41:03;;;;;;;5.20;1.90;;;4.90;99.90;;;;;;4992548;28;20113;-63
2021/03/14 06:43:42;;;;;;;4.80;1.80;;;4.90;99.90;;;;;;4992214;28;20034;-63
2021/03/14 06:46:32;;;;;;;8.02;1.88;;;4.90;99.90;;;;;;4992977;28;20052;-63
2021/03/14 06:49:12;;;;;;;10.07;3.30;;;4.90;99.90;;;;;;4993017;28;20022;-63
2021/03/14 06:51:45;;;;;;;7.65;1.85;;;4.80;99.90;;;;;;4992713;28;20034;-63
2021/03/14 06:54:24;;;;;;;5.75;2.40;;;4.90;99.90;;;;;;4972240;28;20499;-63
2021/03/14 06:57:13;;;;;;;10.48;1.90;;;4.90;99.90;;;;;;4973410;28;20118;-66
2021/03/14 06:59:59;;;;;;;5.40;1.75;;;4.90;99.90;;;;;;4977345;28;20035;-62
2021/03/14 07:02:30;;;;;;;4.10;2.25;;;4.90;99.90;;;;;;4991660;28;20068;-62
2021/03/14 07:05:03;;;;;;;9.88;2.55;;;5.00;99.90;;;;;;4994839;28;20455;-61
2021/03/14 07:07:41;;;;;;;5.13;3.78;;;4.90;99.90;;;;;;4996298;28;20503;-61
2021/03/14 07:10:14;;;;;;;4.05;2.30;;;4.90;99.90;;;;;;4996212;28;20036;-64
2021/03/14 07:12:45;;;;;;;7.88;2.20;;;5.10;99.90;;;;;;4996652;28;20027;-61
2021/03/14 07:15:19;;;;;;;4.43;2.67;;;5.10;99.90;;;;;;4995645;28;20030;-66
2021/03/14 07:17:56;;;;;;;6.90;3.05;;;5.20;99.90;;;;;;4979074;28;20042;-61
2021/03/14 07:20:29;;;;;;;6.70;2.17;;;5.40;99.90;;;;;;4997912;28;20088;-63
2021/03/14 07:23:07;;;;;;;7.78;2.05;;;5.50;99.90;;;;;;4996565;28;20456;-62
2021/03/14 07:25:39;;;;;;;5.47;2.35;;;5.50;99.90;;;;;;4975750;28;20514;-62
2021/03/14 07:28:06;;;;;;;4.78;1.92;;;5.60;99.90;;;;;;4976880;28;20026;-63
2021/03/14 07:30:32;;;;;;;3.75;1.83;;;5.60;99.90;;;;;;4991702;28;20097;-62
2021/03/14 07:32:58;;;;;;;5.57;2.20;;;5.60;99.90;;;;;;4991352;28;20391;-62
2021/03/14 07:35:25;;;;;;;8.43;3.25;;;5.60;99.90;;;;;;4982782;28;20034;-62
2021/03/14 07:37:54;;;;;;;3.40;1.90;;;5.70;99.90;;;;;;4978899;28;20035;-62
2021/03/14 07:40:25;;;;;;;4.22;2.05;;;5.70;99.90;;;;;;4995797;28;20034;-62
2021/03/14 07:43:02;;;;;;;5.22;2.03;;;5.80;99.90;;;;;;4995979;28;20042;-63
2021/03/14 07:45:30;;;;;;;5.43;1.90;;;5.90;99.90;;;;;;5009576;28;20038;-63
2021/03/14 07:47:58;;;;;;;3.88;1.95;;;5.90;99.90;;;;;;5001636;28;20147;-63
2021/03/14 07:50:38;;;;;;;5.60;2.20;;;6.10;99.90;;;;;;4994095;28;20034;-64
2021/03/14 07:53:11;;;;;;;3.92;1.33;;;6.00;99.90;;;;;;4992263;28;20436;-64
2021/03/14 07:55:40;;;;;;;10.63;2.35;;;6.10;99.90;;;;;;4995841;28;20038;-65
2021/03/14 07:58:11;;;;;;;3.90;1.50;;;6.00;99.90;;;;;;4993259;28;20026;-64
2021/03/14 08:00:38;;;;;;;;;;;6.10;99.90;;;;;;4991219;28;20491;-60
2021/03/14 08:03:10;;;;;;;2.80;1.45;;;6.10;99.90;;;;;;4995773;28;19960;-65
2021/03/14 08:05:46;;;;;;;6.50;1.95;;;5.90;99.90;;;;;;4994808;28;20042;-65
2021/03/14 08:08:35;;;;;;;2.72;1.35;;;5.90;99.90;;;;;;4995617;28;20092;-65
2021/03/14 08:11:01;;;;;;;6.32;2.00;;;6.10;99.90;;;;;;4995423;28;20038;-64
2021/03/14 08:13:30;;;;;;;3.78;1.80;;;6.10;99.90;;;;;;4993594;28;20030;-65
2021/03/14 08:16:04;;;;;;;6.63;2.03;;;6.20;99.90;;;;;;5012659;28;20553;-64
2021/03/14 08:18:46;;;;;;;6.97;2.15;;;6.20;99.90;;;;;;5013530;28;20034;-64
2021/03/14 08:21:21;;;;;;;5.28;1.92;;;6.20;99.90;;;;;;4998279;28;20061;-65
2021/03/14 08:23:54;;;;;;;7.50;2.17;;;6.20;99.90;;;;;;5014581;28;20038;-63
2021/03/14 08:26:33;;;;;;;8.00;1.90;;;6.20;99.90;;;;;;5001120;28;20034;-65
2021/03/14 08:29:13;;;;;;;6.50;1.92;;;6.20;99.90;;;;;;4994179;28;20042;-64
2021/03/14 08:31:50;;;;;;;5.40;1.80;;;6.20;99.90;;;;;;4994919;28;20069;-65
2021/03/14 08:34:23;;;;;;;4.68;1.80;;;6.20;99.90;;;;;;4994691;28;20062;-65
2021/03/14 08:36:50;;;;;;;5.47;1.95;;;6.10;99.90;;;;;;4995549;28;20563;-64
2021/03/14 08:39:38;;;;;;;3.65;1.52;;;6.10;99.90;;;;;;4994797;28;20042;-64
2021/03/14 08:42:06;;;;;;;6.60;1.23;;;6.00;99.90;;;;;;4995078;28;20062;-65
2021/03/14 08:44:44;;;;;;;3.80;1.40;;;6.00;99.90;;;;;;4999503;28;20034;-64
2021/03/14 08:47:22;;;;;;;3.85;1.20;;;5.80;99.90;;;;;;5014610;28;20036;-65
2021/03/14 08:49:52;;;;;;;4.57;1.25;;;5.60;99.90;;;;;;4999902;28;20041;-65
2021/03/14 08:52:20;;;;;;;3.78;1.60;;;5.60;99.90;;;;;;4993449;28;20022;-66
2021/03/14 08:54:51;;;;;;;5.22;1.38;;;5.60;99.90;;;;;;4994480;28;20034;-67
2021/03/14 08:57:18;;;;;;;6.70;1.63;;;5.60;99.90;;;;;;4994592;28;20033;-67
2021/03/14 08:59:51;;;;;;;5.25;1.40;;;5.70;99.90;;;;;;4994674;28;20042;-66
2021/03/14 09:02:25;;;;;;;4.25;1.63;;;5.70;99.90;;;;;;4994703;28;20426;-64
2021/03/14 09:04:53;;;;;;;5.80;1.75;;;5.80;99.90;;;;;;4993102;28;20448;-66
2021/03/14 09:07:19;;;;;;;4.70;1.48;;;5.90;99.90;;;;;;4993151;28;20030;-66
2021/03/14 09:09:45;;;;;;;7.05;1.50;;;5.90;99.90;;;;;;4976127;28;20041;-65
2021/03/14 09:12:19;;;;;;;3.97;1.35;;;5.90;99.90;;;;;;4994539;28;20041;-63
2021/03/14 09:14:47;;;;;;;3.92;1.38;;;5.90;99.90;;;;;;5001810;28;20085;-65
2021/03/14 09:17:18;;;;;;;3.80;1.23;;;6.00;99.90;;;;;;5010821;28;20088;-71
2021/03/14 09:19:44;;;;;;;5.40;1.73;;;6.30;99.90;;;;;;5012337;28;20030;-65
2021/03/14 09:22:20;;;;;;;4.20;1.08;;;6.40;99.90;;;;;;5014001;28;20136;-64
2021/03/14 09:24:52;;;;;;;9.07;1.95;;;6.30;99.90;;;;;;5013091;28;20040;-63
2021/03/14 09:27:26;;;;;;;8.32;1.95;;;6.40;99.90;;;;;;5013960;28;20076;-63
2021/03/14 09:29:59;;;;;;;8.98;1.88;;;6.50;99.90;;;;;;5013587;28;20030;-64
2021/03/14 09:32:41;;;;;;;4.53;1.65;;;6.60;99.90;;;;;;5013492;28;20022;-63
2021/03/14 09:35:28;;;;;;;5.10;1.52;;;6.50;99.90;;;;;;4974067;28;20043;-64
2021/03/14 09:38:08;;;;;;;3.88;1.33;;;6.50;99.90;;;;;;4973090;28;20039;-64
2021/03/14 09:40:37;;;;;;;6.00;1.38;;;6.50;99.90;;;;;;4960174;28;20130;-63
2021/03/14 09:43:16;;;;;;;5.22;1.40;;;6.60;99.90;;;;;;4954906;29;20311;-62
2021/03/14 09:45:59;;;;;;;3.35;1.35;;;6.50;99.90;;;;;;4957683;28;20089;-63
2021/03/14 09:48:34;;;;;;;2.53;1.45;;;6.60;99.90;;;;;;4948165;29;20023;-63
2021/03/14 09:51:07;;;;;;;3.63;1.40;;;6.50;99.90;;;;;;4953433;29;20481;-64
2021/03/14 09:53:39;;;;;;;4.57;1.27;;;6.60;99.90;;;;;;4953195;28;20174;-64
2021/03/14 09:56:08;;;;;;;3.45;1.30;;;6.50;99.90;;;;;;4953856;29;20136;-65
2021/03/14 09:58:35;;;;;;;6.53;1.45;;;6.60;99.90;;;;;;4954859;29;20118;-65
2021/03/14 10:01:01;;;;;;;1.95;1.20;;;6.50;99.90;;;;;;4954476;29;20426;-65
2021/03/14 10:03:33;;;;;;;5.45;1.40;;;6.50;99.90;;;;;;4954462;29;20038;-65
2021/03/14 10:06:01;;;;;;;5.30;1.13;;;6.50;99.90;;;;;;4953745;29;20042;-65
2021/03/14 10:08:29;;;;;;;6.85;1.38;;;6.40;99.90;;;;;;4954476;29;20039;-66
2021/03/14 10:11:00;;;;;;;7.65;1.20;;;6.40;99.90;;;;;;4954488;29;20229;-64
2021/03/14 10:13:28;;;;;;;4.97;1.25;;;6.40;99.90;;;;;;4954516;29;20480;-64
2021/03/14 10:15:56;;;;;;;8.48;1.58;;;6.40;99.90;;;;;;4971421;28;20042;-65
2021/03/14 10:18:24;;;;;;;5.55;1.50;;;6.50;99.90;;;;;;4988797;28;20030;-65
2021/03/14 10:21:12;;;;;;;5.93;1.55;;;6.60;99.90;;;;;;4973913;28;20054;-65
2021/03/14 10:23:37;;;;;;;8.13;1.40;;;7.00;99.90;;;;;;4985891;28;20042;-65
2021/03/14 10:26:08;;;;;;;3.20;1.10;;;7.20;99.90;;;;;;4973858;28;20035;-65
2021/03/14 10:28:43;;;;;;;2.73;1.40;;;7.60;99.90;;;;;;4973453;28;20066;-65
2021/03/14 10:31:10;;;;;;;4.25;1.55;;;7.70;99.90;;;;;;4973674;28;20038;-65
2021/03/14 10:33:39;;;;;;;6.07;1.40;;;7.50;99.90;;;;;;4992094;28;20042;-67
2021/03/14 10:36:14;;;;;;;7.00;1.60;;;7.60;99.90;;;;;;5011315;28;20029;-66
2021/03/14 10:38:45;;;;;;;7.57;1.58;;;7.40;99.90;;;;;;5012586;28;20034;-65
2021/03/14 10:41:24;;;;;;;3.58;1.25;;;7.90;99.90;;;;;;5012723;28;20034;-65
2021/03/14 10:43:54;;;;;;;7.90;1.65;;;7.60;99.90;;;;;;4994389;28;20608;-65
2021/03/14 10:46:50;;;;;;;6.28;1.55;;;7.80;99.90;;;;;;4992789;28;20031;-66
2021/03/14 10:49:28;;;;;;;1.88;1.10;;;7.60;99.90;;;;;;4992920;28;20081;-65
2021/03/14 10:52:00;;;;;;;4.35;1.23;;;7.60;99.90;;;;;;4992863;28;20403;-66
2021/03/14 10:54:35;;;;;;;7.13;1.60;;;7.50;99.90;;;;;;4992117;28;20065;-65
2021/03/14 10:57:02;;;;;;;11.40;1.80;;;7.50;99.90;;;;;;4991680;28;20034;-65
2021/03/14 10:59:50;;;;;;;6.90;1.55;;;7.30;99.90;;;;;;4993098;28;20479;-65
2021/03/14 11:02:32;;;;;;;4.00;1.23;;;7.20;99.90;;;;;;4977247;28;20070;-65
2021/03/14 11:04:59;;;;;;;4.32;1.75;;;7.10;99.90;;;;;;4991626;28;20109;-65
2021/03/14 11:07:34;;;;;;;3.85;1.20;;;7.00;99.90;;;;;;4992786;28;20069;-65
2021/03/14 11:10:16;;;;;;;6.85;1.90;;;7.10;99.90;;;;;;4992797;28;20030;-65
2021/03/14 11:12:46;;;;;;;3.17;1.30;;;7.10;99.90;;;;;;4992745;28;20356;-65
2021/03/14 11:15:33;;;;;;;4.85;1.20;;;7.10;99.90;;;;;;5004252;28;20041;-65
2021/03/14 11:18:03;;;;;;;7.35;1.25;;;7.10;99.90;;;;;;5012369;28;20057;-66
2021/03/14 11:20:29;;;;;;;5.05;1.02;;;7.10;99.90;;;;;;5010918;28;20072;-66
2021/03/14 11:22:57;;;;;;;3.97;1.02;;;7.40;99.90;;;;;;5012477;28;20495;-65
2021/03/14 11:25:25;;;;;;;5.10;0.85;;;7.30;99.90;;;;;;5007812;28;20080;-66
2021/03/14 11:27:52;;;;;;;4.07;1.50;;;7.30;99.90;;;;;;5011872;28;20044;-66
2021/03/14 11:30:23;;;;;;;3.05;1.17;;;7.30;99.90;;;;;;5012159;28;20042;-66
2021/03/14 11:32:49;;;;;;;7.45;1.20;;;7.20;99.90;;;;;;5011451;28;20446;-66
2021/03/14 11:35:15;;;;;;;7.40;1.08;;;6.90;99.90;;;;;;5012028;28;20080;-66
2021/03/14 11:37:42;;;;;;;5.03;1.40;;;6.80;99.90;;;;;;5010766;28;20080;-66
2021/03/14 11:40:10;;;;;;;2.13;1.08;;;6.80;99.90;;;;;;5001798;28;20030;-66
2021/03/14 11:42:36;;;;;;;2.88;1.27;;;6.80;99.90;;;;;;4992183;28;20038;-66
2021/03/14 11:45:05;;;;;;;1.42;0.70;;;6.80;99.90;;;;;;4991996;28;20034;-66
2021/03/14 11:47:31;;;;;;;2.35;0.80;;;6.90;99.90;;;;;;4991456;28;20113;-65
2021/03/14 11:49:57;;;;;;;4.43;0.93;;;6.70;99.90;;;;;;4993928;28;20540;-65
2021/03/14 11:52:22;;;;;;;2.28;0.95;;;6.70;99.90;;;;;;4994615;28;20419;-65
2021/03/14 11:54:48;;;;;;;2.15;0.80;;;6.50;99.90;;;;;;4995442;28;20152;-65
2021/03/14 11:57:14;;;;;;;3.55;0.95;;;6.50;99.90;;;;;;4994280;28;20038;-66
2021/03/14 11:59:40;;;;;;;3.55;1.40;;;6.50;99.90;;;;;;4995524;28;20472;-65
2021/03/14 12:02:07;;;;;;;3.33;0.95;;;6.50;99.90;;;;;;4993095;28;20030;-65
2021/03/14 12:04:33;;;;;;;3.60;1.10;;;6.30;99.90;;;;;;4977779;28;20033;-65
2021/03/14 12:06:59;;;;;;;3.03;1.05;;;6.10;99.90;;;;;;4995296;28;20105;-65
2021/03/14 12:09:25;;;;;;;2.67;0.88;;;6.00;99.90;;;;;;4995011;28;20030;-65
2021/03/14 12:11:51;;;;;;;1.23;0.63;;;5.80;99.90;;;;;;4993751;28;20034;-65
2021/03/14 12:14:18;;;;;;;3.90;1.02;;;5.70;99.90;;;;;;4999406;28;20026;-65
2021/03/14 12:16:44;;;;;;;3.38;0.90;;;5.70;99.90;;;;;;5014816;28;20360;-66
2021/03/14 12:19:10;;;;;;;2.50;1.30;;;5.70;99.90;;;;;;5015171;28;20036;-65
2021/03/14 12:21:36;;;;;;;3.92;1.20;;;5.60;99.90;;;;;;5014762;28;20153;-66
2021/03/14 12:24:02;;;;;;;5.80;1.15;;;5.60;99.90;;;;;;5015379;28;20468;-66
2021/03/14 12:26:28;;;;;;;5.18;1.20;;;5.70;99.90;;;;;;5014728;28;20033;-66
2021/03/14 12:28:54;;;;;;;5.15;1.58;;;5.70;99.90;;;;;;5014397;28;20505;-66
2021/03/14 12:31:21;;;;;;;5.72;1.13;;;5.70;99.90;;;;;;5014455;28;20029;-65
2021/03/14 12:33:47;;;;;;;4.97;1.50;;;5.60;99.90;;;;;;5014232;28;20053;-65
2021/03/14 12:36:14;;;;;;;3.95;1.40;;;5.70;99.90;;;;;;5014676;28;20044;-66
2021/03/14 12:38:41;;;;;;;4.15;1.30;;;5.70;99.90;;;;;;5014624;28;20044;-65
2021/03/14 12:41:07;;;;;;;2.83;1.25;;;5.80;99.90;;;;;;5014595;28;20042;-66
2021/03/14 12:43:32;;;;;;;3.90;1.55;;;5.90;99.90;;;;;;5014474;28;20088;-66
2021/03/14 12:45:59;;;;;;;3.50;1.30;;;5.60;99.90;;;;;;4996287;28;20038;-66
2021/03/14 12:48:26;;;;;;;1.38;1.00;;;5.50;99.90;;;;;;4995020;28;20509;-65
2021/03/14 12:50:52;;;;;;;4.75;1.60;;;5.60;99.90;;;;;;4994727;28;20034;-65
2021/03/14 12:53:18;;;;;;;3.45;1.63;;;5.60;99.90;;;;;;4994944;28;20073;-65
2021/03/14 12:55:44;;;;;;;6.72;1.98;;;5.70;99.90;;;;;;4994657;28;20125;-65
2021/03/14 12:58:09;;;;;;;1.30;0.90;;;5.90;99.90;;;;;;4993545;28;20035;-65
2021/03/14 13:00:35;;;;;;;5.22;1.02;;;6.00;99.90;;;;;;4993639;28;20042;-65
2021/03/14 13:03:01;;;;;;;2.55;0.90;;;6.10;99.90;;;;;;4993496;28;20026;-65
2021/03/14 13:05:27;;;;;;;4.07;0.93;;;6.50;99.90;;;;;;4994264;28;20491;-65
2021/03/14 13:07:55;;;;;;;7.43;1.30;;;7.50;99.90;;;;;;4994380;28;20030;-65
2021/03/14 13:10:22;;;;;;;2.72;1.17;;;7.70;99.90;;;;;;4994569;28;20039;-65
2021/03/14 13:12:49;;;;;;;3.40;1.17;;;7.80;99.90;;;;;;4994479;28;20031;-65